sensor_id;sensor_type;location;lat;lon;timestamp;pressure;altitude;pressure_sealevel;temperature;humidity
36798;BME280;22748;8.426;99.512;2023-05-23T00:01:56;100837.38;;;28.18;67.30
36798;BME280;22748;8.426;99.512;2023-05-23T00:04:28;100840.50;;;28.22;66.89
36798;BME280;22748;8.426;99.512;2023-05-23T00:07:00;100850.22;;;28.23;66.96
36798;BME280;22748;8.426;99.512;2023-05-23T00:09:31;100844.59;;;28.18;67.73
36798;BME280;22748;8.426;99.512;2023-05-23T00:12:03;100857.00;;;28.19;67.53
36798;BME280;22748;8.426;99.512;2023-05-23T00:14:34;100852.28;;;28.21;67.32
36798;BME280;22748;8.426;99.512;2023-05-23T00:17:06;100861.78;;;28.23;67.96
36798;BME280;22748;8.426;99.512;2023-05-23T00:19:40;100872.53;;;28.23;67.63
36798;BME280;22748;8.426;99.512;2023-05-23T00:22:24;100872.97;;;28.27;67.90
36798;BME280;22748;8.426;99.512;2023-05-23T00:25:01;100869.41;;;28.20;67.79
36798;BME280;22748;8.426;99.512;2023-05-23T00:27:45;100864.66;;;28.22;67.62
36798;BME280;22748;8.426;99.512;2023-05-23T00:30:16;100874.38;;;28.23;68.08
36798;BME280;22748;8.426;99.512;2023-05-23T00:32:46;100879.13;;;28.21;68.12
36798;BME280;22748;8.426;99.512;2023-05-23T00:35:17;100893.59;;;28.26;67.92
36798;BME280;22748;8.426;99.512;2023-05-23T00:37:52;100894.84;;;28.30;68.11
36798;BME280;22748;8.426;99.512;2023-05-23T00:40:23;100894.66;;;28.32;68.59
36798;BME280;22748;8.426;99.512;2023-05-23T00:42:53;100905.41;;;28.32;68.83
36798;BME280;22748;8.426;99.512;2023-05-23T00:45:24;100912.06;;;28.36;68.38
36798;BME280;22748;8.426;99.512;2023-05-23T00:47:56;100910.16;;;28.30;68.82
36798;BME280;22748;8.426;99.512;2023-05-23T00:50:28;100916.31;;;28.24;69.14
36798;BME280;22748;8.426;99.512;2023-05-23T00:52:59;100914.84;;;28.21;69.10
36798;BME280;22748;8.426;99.512;2023-05-23T00:55:30;100910.38;;;28.35;68.78
36798;BME280;22748;8.426;99.512;2023-05-23T00:58:01;100912.72;;;28.45;68.69
36798;BME280;22748;8.426;99.512;2023-05-23T01:00:32;100921.47;;;28.54;68.39
36798;BME280;22748;8.426;99.512;2023-05-23T01:03:04;100920.03;;;28.58;68.15
36798;BME280;22748;8.426;99.512;2023-05-23T01:05:43;100931.81;;;28.57;68.38
36798;BME280;22748;8.426;99.512;2023-05-23T01:08:19;100935.53;;;28.56;69.12
36798;BME280;22748;8.426;99.512;2023-05-23T01:10:51;100928.50;;;28.61;69.13
36798;BME280;22748;8.426;99.512;2023-05-23T01:13:28;100927.31;;;28.64;68.83
36798;BME280;22748;8.426;99.512;2023-05-23T01:16:06;100930.22;;;28.69;68.68
36798;BME280;22748;8.426;99.512;2023-05-23T01:18:44;100941.78;;;28.69;68.91
36798;BME280;22748;8.426;99.512;2023-05-23T01:21:19;100949.47;;;28.73;69.23
36798;BME280;22748;8.426;99.512;2023-05-23T01:27:09;100962.97;;;28.92;69.07
36798;BME280;22748;8.426;99.512;2023-05-23T01:29:55;100964.25;;;28.97;68.67
36798;BME280;22748;8.426;99.512;2023-05-23T01:32:27;100963.81;;;29.00;69.05
36798;BME280;22748;8.426;99.512;2023-05-23T01:34:59;100961.63;;;29.10;68.76
36798;BME280;22748;8.426;99.512;2023-05-23T01:37:30;100964.47;;;29.08;68.64
36798;BME280;22748;8.426;99.512;2023-05-23T01:40:01;100964.31;;;29.10;68.66
36798;BME280;22748;8.426;99.512;2023-05-23T01:42:32;100953.13;;;29.13;68.39
36798;BME280;22748;8.426;99.512;2023-05-23T01:45:08;100959.13;;;29.15;68.40
36798;BME280;22748;8.426;99.512;2023-05-23T01:47:40;100959.97;;;29.22;68.51
36798;BME280;22748;8.426;99.512;2023-05-23T01:50:11;100949.44;;;29.27;68.28
36798;BME280;22748;8.426;99.512;2023-05-23T01:52:41;100964.38;;;29.37;68.01
36798;BME280;22748;8.426;99.512;2023-05-23T01:55:13;100971.41;;;29.38;68.46
36798;BME280;22748;8.426;99.512;2023-05-23T01:57:50;100967.69;;;29.39;68.57
36798;BME280;22748;8.426;99.512;2023-05-23T02:00:26;100972.25;;;29.45;68.84
36798;BME280;22748;8.426;99.512;2023-05-23T02:03:00;100968.13;;;29.49;68.53
36798;BME280;22748;8.426;99.512;2023-05-23T02:05:32;100972.88;;;29.53;68.25
36798;BME280;22748;8.426;99.512;2023-05-23T02:08:03;100971.00;;;29.54;68.39
36798;BME280;22748;8.426;99.512;2023-05-23T02:10:32;100965.22;;;29.57;68.08
36798;BME280;22748;8.426;99.512;2023-05-23T02:13:07;100974.75;;;29.60;67.64
36798;BME280;22748;8.426;99.512;2023-05-23T02:15:40;100969.78;;;29.63;67.44
36798;BME280;22748;8.426;99.512;2023-05-23T02:18:10;100971.44;;;29.64;67.46
36798;BME280;22748;8.426;99.512;2023-05-23T02:20:41;100969.38;;;29.66;67.55
36798;BME280;22748;8.426;99.512;2023-05-23T02:23:12;100981.78;;;29.67;67.12
36798;BME280;22748;8.426;99.512;2023-05-23T02:25:43;100976.03;;;29.70;67.94
36798;BME280;22748;8.426;99.512;2023-05-23T02:28:13;100974.94;;;29.58;68.08
36798;BME280;22748;8.426;99.512;2023-05-23T02:30:47;100968.59;;;29.72;67.80
36798;BME280;22748;8.426;99.512;2023-05-23T02:33:17;100979.75;;;29.83;67.56
36798;BME280;22748;8.426;99.512;2023-05-23T02:35:49;100980.81;;;29.88;67.54
36798;BME280;22748;8.426;99.512;2023-05-23T02:38:19;100973.13;;;29.92;67.84
36798;BME280;22748;8.426;99.512;2023-05-23T02:40:51;100962.38;;;29.99;67.29
36798;BME280;22748;8.426;99.512;2023-05-23T02:43:25;100963.81;;;29.88;67.39
36798;BME280;22748;8.426;99.512;2023-05-23T02:45:56;100961.50;;;29.98;67.15
36798;BME280;22748;8.426;99.512;2023-05-23T02:48:26;100958.63;;;30.06;67.06
36798;BME280;22748;8.426;99.512;2023-05-23T02:50:57;100953.22;;;30.06;66.97
36798;BME280;22748;8.426;99.512;2023-05-23T02:53:28;100955.72;;;30.14;66.83
36798;BME280;22748;8.426;99.512;2023-05-23T02:55:58;100952.59;;;30.18;66.31
36798;BME280;22748;8.426;99.512;2023-05-23T02:58:29;100956.09;;;30.11;66.77
36798;BME280;22748;8.426;99.512;2023-05-23T03:01:04;100950.31;;;30.14;66.45
36798;BME280;22748;8.426;99.512;2023-05-23T03:03:34;100954.03;;;30.20;66.17
36798;BME280;22748;8.426;99.512;2023-05-23T03:06:09;100941.19;;;30.22;65.73
36798;BME280;22748;8.426;99.512;2023-05-23T03:08:44;100951.97;;;30.29;65.99
36798;BME280;22748;8.426;99.512;2023-05-23T03:11:15;100948.88;;;30.32;65.76
36798;BME280;22748;8.426;99.512;2023-05-23T03:13:46;100947.41;;;30.36;65.59
36798;BME280;22748;8.426;99.512;2023-05-23T03:16:19;100942.00;;;30.43;64.95
36798;BME280;22748;8.426;99.512;2023-05-23T03:18:49;100941.34;;;30.47;65.14
36798;BME280;22748;8.426;99.512;2023-05-23T03:21:20;100942.81;;;30.43;65.30
36798;BME280;22748;8.426;99.512;2023-05-23T03:23:56;100955.22;;;30.44;65.03
36798;BME280;22748;8.426;99.512;2023-05-23T03:26:26;100945.94;;;30.47;65.25
36798;BME280;22748;8.426;99.512;2023-05-23T03:28:58;100946.75;;;30.47;64.99
36798;BME280;22748;8.426;99.512;2023-05-23T03:31:29;100947.13;;;30.58;65.36
36798;BME280;22748;8.426;99.512;2023-05-23T03:34:00;100943.78;;;30.62;65.43
36798;BME280;22748;8.426;99.512;2023-05-23T03:36:33;100946.88;;;30.66;64.75
36798;BME280;22748;8.426;99.512;2023-05-23T03:39:06;100947.50;;;30.68;64.92
36798;BME280;22748;8.426;99.512;2023-05-23T03:41:37;100946.88;;;30.66;65.36
36798;BME280;22748;8.426;99.512;2023-05-23T03:44:07;100941.88;;;30.76;64.87
36798;BME280;22748;8.426;99.512;2023-05-23T03:46:40;100945.59;;;30.82;64.40
36798;BME280;22748;8.426;99.512;2023-05-23T03:49:10;100941.03;;;30.75;64.48
36798;BME280;22748;8.426;99.512;2023-05-23T03:51:41;100941.00;;;30.82;64.09
36798;BME280;22748;8.426;99.512;2023-05-23T03:54:12;100924.81;;;30.89;64.09
36798;BME280;22748;8.426;99.512;2023-05-23T03:56:44;100926.88;;;30.93;64.48
36798;BME280;22748;8.426;99.512;2023-05-23T03:59:14;100925.22;;;30.92;64.05
36798;BME280;22748;8.426;99.512;2023-05-23T04:01:47;100926.63;;;31.02;63.79
36798;BME280;22748;8.426;99.512;2023-05-23T04:04:18;100930.09;;;31.09;63.59
36798;BME280;22748;8.426;99.512;2023-05-23T04:06:53;100926.53;;;31.15;63.38
36798;BME280;22748;8.426;99.512;2023-05-23T04:09:23;100916.78;;;31.14;63.65
36798;BME280;22748;8.426;99.512;2023-05-23T04:11:54;100927.97;;;31.17;63.42
36798;BME280;22748;8.426;99.512;2023-05-23T04:14:24;100925.13;;;31.12;63.44
36798;BME280;22748;8.426;99.512;2023-05-23T04:16:56;100923.22;;;31.13;63.45
36798;BME280;22748;8.426;99.512;2023-05-23T04:19:28;100925.19;;;30.99;63.80
36798;BME280;22748;8.426;99.512;2023-05-23T04:21:59;100911.88;;;31.04;62.49
36798;BME280;22748;8.426;99.512;2023-05-23T04:24:29;100909.34;;;31.09;62.51
36798;BME280;22748;8.426;99.512;2023-05-23T04:27:01;100908.53;;;31.09;62.80
36798;BME280;22748;8.426;99.512;2023-05-23T04:29:32;100904.75;;;31.16;62.16
36798;BME280;22748;8.426;99.512;2023-05-23T04:32:05;100902.81;;;31.24;62.78
36798;BME280;22748;8.426;99.512;2023-05-23T04:34:36;100904.25;;;31.26;62.59
36798;BME280;22748;8.426;99.512;2023-05-23T04:37:09;100905.56;;;31.17;63.33
36798;BME280;22748;8.426;99.512;2023-05-23T04:39:40;100901.00;;;31.17;63.01
36798;BME280;22748;8.426;99.512;2023-05-23T04:42:11;100891.22;;;31.23;63.06
36798;BME280;22748;8.426;99.512;2023-05-23T04:44:44;100877.00;;;31.34;62.39
36798;BME280;22748;8.426;99.512;2023-05-23T04:47:18;100884.22;;;31.41;62.21
36798;BME280;22748;8.426;99.512;2023-05-23T04:49:50;100874.06;;;31.43;61.90
36798;BME280;22748;8.426;99.512;2023-05-23T04:52:22;100868.81;;;31.48;62.25
36798;BME280;22748;8.426;99.512;2023-05-23T04:54:53;100860.28;;;31.51;61.46
36798;BME280;22748;8.426;99.512;2023-05-23T04:57:38;100854.25;;;31.55;61.68
36798;BME280;22748;8.426;99.512;2023-05-23T05:00:09;100854.19;;;31.62;60.98
36798;BME280;22748;8.426;99.512;2023-05-23T05:02:41;100838.72;;;31.69;61.05
36798;BME280;22748;8.426;99.512;2023-05-23T05:05:11;100840.06;;;31.78;60.21
36798;BME280;22748;8.426;99.512;2023-05-23T05:07:42;100835.66;;;31.84;59.82
36798;BME280;22748;8.426;99.512;2023-05-23T05:10:13;100838.59;;;31.83;59.29
36798;BME280;22748;8.426;99.512;2023-05-23T05:12:46;100836.72;;;31.83;59.92
36798;BME280;22748;8.426;99.512;2023-05-23T05:15:18;100825.09;;;31.83;59.85
36798;BME280;22748;8.426;99.512;2023-05-23T05:17:50;100826.56;;;31.78;59.59
36798;BME280;22748;8.426;99.512;2023-05-23T05:20:20;100822.38;;;31.83;59.83
36798;BME280;22748;8.426;99.512;2023-05-23T05:22:56;100812.09;;;31.91;60.05
36798;BME280;22748;8.426;99.512;2023-05-23T05:25:27;100816.44;;;31.99;59.91
36798;BME280;22748;8.426;99.512;2023-05-23T05:28:18;100820.31;;;32.03;59.93
36798;BME280;22748;8.426;99.512;2023-05-23T05:31:06;100809.88;;;32.07;59.60
36798;BME280;22748;8.426;99.512;2023-05-23T05:33:39;100802.16;;;32.10;59.11
36798;BME280;22748;8.426;99.512;2023-05-23T05:36:13;100801.69;;;32.13;59.40
36798;BME280;22748;8.426;99.512;2023-05-23T05:38:42;100801.25;;;32.16;59.51
36798;BME280;22748;8.426;99.512;2023-05-23T05:41:13;100795.25;;;32.14;58.62
36798;BME280;22748;8.426;99.512;2023-05-23T05:43:44;100795.84;;;32.16;57.77
36798;BME280;22748;8.426;99.512;2023-05-23T05:46:15;100782.94;;;32.18;57.95
36798;BME280;22748;8.426;99.512;2023-05-23T05:48:48;100778.25;;;32.26;57.33
36798;BME280;22748;8.426;99.512;2023-05-23T05:51:19;100775.34;;;32.27;57.92
36798;BME280;22748;8.426;99.512;2023-05-23T05:53:49;100768.41;;;32.31;57.54
36798;BME280;22748;8.426;99.512;2023-05-23T05:56:20;100762.78;;;32.33;57.26
36798;BME280;22748;8.426;99.512;2023-05-23T05:58:50;100761.47;;;32.35;57.16
36798;BME280;22748;8.426;99.512;2023-05-23T06:01:25;100759.63;;;32.36;57.55
36798;BME280;22748;8.426;99.512;2023-05-23T06:04:00;100754.53;;;32.28;57.92
36798;BME280;22748;8.426;99.512;2023-05-23T06:06:31;100750.03;;;32.22;57.78
36798;BME280;22748;8.426;99.512;2023-05-23T06:09:01;100734.22;;;32.25;57.52
36798;BME280;22748;8.426;99.512;2023-05-23T06:11:31;100727.63;;;32.33;57.10
36798;BME280;22748;8.426;99.512;2023-05-23T06:14:05;100726.13;;;32.37;57.22
36798;BME280;22748;8.426;99.512;2023-05-23T06:16:35;100721.09;;;32.41;57.00
36798;BME280;22748;8.426;99.512;2023-05-23T06:19:16;100713.91;;;32.46;57.04
36798;BME280;22748;8.426;99.512;2023-05-23T06:21:47;100712.28;;;32.45;57.73
36798;BME280;22748;8.426;99.512;2023-05-23T06:24:18;100697.91;;;32.33;57.38
36798;BME280;22748;8.426;99.512;2023-05-23T06:26:49;100694.50;;;32.37;57.13
36798;BME280;22748;8.426;99.512;2023-05-23T06:29:19;100700.66;;;32.45;57.45
36798;BME280;22748;8.426;99.512;2023-05-23T06:31:50;100680.44;;;32.47;56.51
36798;BME280;22748;8.426;99.512;2023-05-23T06:34:24;100688.22;;;32.55;55.99
36798;BME280;22748;8.426;99.512;2023-05-23T06:36:56;100680.84;;;32.63;55.90
36798;BME280;22748;8.426;99.512;2023-05-23T06:39:26;100672.84;;;32.68;55.40
36798;BME280;22748;8.426;99.512;2023-05-23T06:41:56;100655.09;;;32.72;54.98
36798;BME280;22748;8.426;99.512;2023-05-23T06:44:27;100658.97;;;32.76;55.17
36798;BME280;22748;8.426;99.512;2023-05-23T06:47:01;100648.88;;;32.83;55.27
36798;BME280;22748;8.426;99.512;2023-05-23T06:49:34;100644.16;;;32.90;54.65
36798;BME280;22748;8.426;99.512;2023-05-23T06:52:11;100642.88;;;32.93;54.46
36798;BME280;22748;8.426;99.512;2023-05-23T06:54:46;100634.50;;;32.94;54.39
36798;BME280;22748;8.426;99.512;2023-05-23T06:57:16;100628.97;;;33.01;54.60
36798;BME280;22748;8.426;99.512;2023-05-23T06:59:47;100618.50;;;33.05;54.76
36798;BME280;22748;8.426;99.512;2023-05-23T07:02:18;100605.47;;;33.02;55.08
36798;BME280;22748;8.426;99.512;2023-05-23T07:04:49;100605.34;;;32.96;55.57
36798;BME280;22748;8.426;99.512;2023-05-23T07:07:20;100607.44;;;32.94;55.14
36798;BME280;22748;8.426;99.512;2023-05-23T07:09:50;100595.22;;;32.92;54.90
36798;BME280;22748;8.426;99.512;2023-05-23T07:12:20;100598.16;;;33.02;54.44
36798;BME280;22748;8.426;99.512;2023-05-23T07:14:51;100594.16;;;33.05;54.42
36798;BME280;22748;8.426;99.512;2023-05-23T07:17:22;100583.22;;;33.11;54.48
36798;BME280;22748;8.426;99.512;2023-05-23T07:19:55;100588.88;;;33.10;55.00
36798;BME280;22748;8.426;99.512;2023-05-23T07:22:27;100578.03;;;33.10;54.34
36798;BME280;22748;8.426;99.512;2023-05-23T07:24:57;100586.16;;;33.10;54.38
36798;BME280;22748;8.426;99.512;2023-05-23T07:27:28;100566.28;;;33.16;54.16
36798;BME280;22748;8.426;99.512;2023-05-23T07:30:03;100564.50;;;33.22;54.25
36798;BME280;22748;8.426;99.512;2023-05-23T07:32:33;100557.28;;;33.27;53.69
36798;BME280;22748;8.426;99.512;2023-05-23T07:35:06;100551.50;;;33.35;53.42
36798;BME280;22748;8.426;99.512;2023-05-23T07:37:37;100548.31;;;33.38;53.46
36798;BME280;22748;8.426;99.512;2023-05-23T07:40:09;100553.75;;;33.38;53.56
36798;BME280;22748;8.426;99.512;2023-05-23T07:42:40;100536.50;;;33.45;53.71
36798;BME280;22748;8.426;99.512;2023-05-23T07:45:12;100541.59;;;33.41;53.47
36798;BME280;22748;8.426;99.512;2023-05-23T07:47:43;100548.19;;;33.45;53.62
36798;BME280;22748;8.426;99.512;2023-05-23T07:50:16;100537.66;;;33.49;52.96
36798;BME280;22748;8.426;99.512;2023-05-23T07:52:46;100535.88;;;33.54;53.09
36798;BME280;22748;8.426;99.512;2023-05-23T07:55:19;100525.97;;;33.60;52.83
36798;BME280;22748;8.426;99.512;2023-05-23T07:57:50;100525.88;;;33.55;52.73
36798;BME280;22748;8.426;99.512;2023-05-23T08:00:22;100521.13;;;33.62;52.43
36798;BME280;22748;8.426;99.512;2023-05-23T08:02:51;100518.53;;;33.67;52.50
36798;BME280;22748;8.426;99.512;2023-05-23T08:05:26;100513.94;;;33.68;52.21
36798;BME280;22748;8.426;99.512;2023-05-23T08:07:56;100507.78;;;33.72;51.91
36798;BME280;22748;8.426;99.512;2023-05-23T08:10:30;100511.31;;;33.73;51.94
36798;BME280;22748;8.426;99.512;2023-05-23T08:13:01;100513.28;;;33.77;51.30
36798;BME280;22748;8.426;99.512;2023-05-23T08:15:33;100511.25;;;33.85;51.29
36798;BME280;22748;8.426;99.512;2023-05-23T08:18:03;100504.28;;;33.89;51.43
36798;BME280;22748;8.426;99.512;2023-05-23T08:20:38;100497.78;;;33.90;51.34
36798;BME280;22748;8.426;99.512;2023-05-23T08:23:09;100508.03;;;33.88;51.61
36798;BME280;22748;8.426;99.512;2023-05-23T08:25:44;100508.84;;;33.88;51.33
36798;BME280;22748;8.426;99.512;2023-05-23T08:28:15;100505.09;;;33.89;51.31
36798;BME280;22748;8.426;99.512;2023-05-23T08:30:45;100501.81;;;33.87;51.50
36798;BME280;22748;8.426;99.512;2023-05-23T08:33:16;100498.88;;;33.89;51.63
36798;BME280;22748;8.426;99.512;2023-05-23T08:35:49;100497.78;;;33.90;51.58
36798;BME280;22748;8.426;99.512;2023-05-23T08:38:20;100494.84;;;33.91;50.96
36798;BME280;22748;8.426;99.512;2023-05-23T08:40:51;100499.44;;;33.91;51.50
36798;BME280;22748;8.426;99.512;2023-05-23T08:43:24;100493.59;;;33.82;51.94
36798;BME280;22748;8.426;99.512;2023-05-23T08:45:55;100495.41;;;33.76;51.74
36798;BME280;22748;8.426;99.512;2023-05-23T08:48:28;100492.34;;;33.73;51.86
36798;BME280;22748;8.426;99.512;2023-05-23T08:51:02;100486.13;;;33.72;51.70
36798;BME280;22748;8.426;99.512;2023-05-23T08:53:36;100487.66;;;33.68;52.09
36798;BME280;22748;8.426;99.512;2023-05-23T08:56:08;100486.03;;;33.67;52.27
36798;BME280;22748;8.426;99.512;2023-05-23T08:58:40;100486.81;;;33.51;53.30
36798;BME280;22748;8.426;99.512;2023-05-23T09:01:12;100486.16;;;33.44;53.54
36798;BME280;22748;8.426;99.512;2023-05-23T09:03:44;100484.31;;;33.32;53.37
36798;BME280;22748;8.426;99.512;2023-05-23T09:06:16;100487.50;;;33.29;53.43
36798;BME280;22748;8.426;99.512;2023-05-23T09:08:50;100481.69;;;33.37;53.30
36798;BME280;22748;8.426;99.512;2023-05-23T09:11:21;100480.53;;;33.33;53.47
36798;BME280;22748;8.426;99.512;2023-05-23T09:13:51;100489.75;;;33.32;53.29
36798;BME280;22748;8.426;99.512;2023-05-23T09:16:23;100486.06;;;33.38;53.17
36798;BME280;22748;8.426;99.512;2023-05-23T09:19:09;100486.97;;;33.44;53.42
36798;BME280;22748;8.426;99.512;2023-05-23T09:21:46;100491.97;;;33.52;53.36
36798;BME280;22748;8.426;99.512;2023-05-23T09:24:18;100499.25;;;33.35;53.62
36798;BME280;22748;8.426;99.512;2023-05-23T09:26:49;100492.72;;;33.48;53.83
36798;BME280;22748;8.426;99.512;2023-05-23T09:29:19;100498.22;;;33.53;53.41
36798;BME280;22748;8.426;99.512;2023-05-23T09:31:59;100496.66;;;33.57;53.44
36798;BME280;22748;8.426;99.512;2023-05-23T09:34:41;100489.28;;;33.52;53.81
36798;BME280;22748;8.426;99.512;2023-05-23T09:37:14;100492.78;;;33.53;53.67
36798;BME280;22748;8.426;99.512;2023-05-23T09:39:47;100493.59;;;33.53;53.67
36798;BME280;22748;8.426;99.512;2023-05-23T09:42:22;100495.63;;;33.58;53.84
36798;BME280;22748;8.426;99.512;2023-05-23T09:44:53;100494.06;;;33.62;53.59
36798;BME280;22748;8.426;99.512;2023-05-23T09:47:24;100484.88;;;33.63;53.69
36798;BME280;22748;8.426;99.512;2023-05-23T09:49:55;100491.13;;;33.64;53.58
36798;BME280;22748;8.426;99.512;2023-05-23T09:52:35;100495.22;;;33.66;53.76
36798;BME280;22748;8.426;99.512;2023-05-23T09:55:07;100497.94;;;33.66;53.72
36798;BME280;22748;8.426;99.512;2023-05-23T09:57:36;100495.72;;;33.63;53.68
36798;BME280;22748;8.426;99.512;2023-05-23T10:00:07;100495.03;;;33.56;54.04
36798;BME280;22748;8.426;99.512;2023-05-23T10:02:59;100493.38;;;33.55;54.13
36798;BME280;22748;8.426;99.512;2023-05-23T10:05:37;100496.66;;;33.57;54.31
36798;BME280;22748;8.426;99.512;2023-05-23T10:08:15;100499.13;;;33.58;54.54
36798;BME280;22748;8.426;99.512;2023-05-23T10:13:35;100496.19;;;33.60;54.34
36798;BME280;22748;8.426;99.512;2023-05-23T10:16:11;100494.34;;;33.60;55.05
36798;BME280;22748;8.426;99.512;2023-05-23T10:18:44;100498.31;;;33.58;55.06
36798;BME280;22748;8.426;99.512;2023-05-23T10:21:23;100516.22;;;33.59;55.02
36798;BME280;22748;8.426;99.512;2023-05-23T10:23:55;100512.69;;;33.58;56.72
36798;BME280;22748;8.426;99.512;2023-05-23T10:26:27;100515.53;;;33.52;58.61
36798;BME280;22748;8.426;99.512;2023-05-23T10:29:00;100526.09;;;33.36;58.77
36798;BME280;22748;8.426;99.512;2023-05-23T10:31:33;100523.53;;;33.30;59.58
36798;BME280;22748;8.426;99.512;2023-05-23T10:34:14;100534.00;;;33.26;59.45
36798;BME280;22748;8.426;99.512;2023-05-23T10:36:58;100539.00;;;33.06;60.01
36798;BME280;22748;8.426;99.512;2023-05-23T10:39:48;100545.56;;;33.10;59.99
36798;BME280;22748;8.426;99.512;2023-05-23T10:42:30;100543.38;;;33.07;60.36
36798;BME280;22748;8.426;99.512;2023-05-23T10:45:21;100545.44;;;33.05;60.65
36798;BME280;22748;8.426;99.512;2023-05-23T10:47:53;100572.50;;;33.05;60.74
36798;BME280;22748;8.426;99.512;2023-05-23T10:50:37;100560.63;;;33.06;60.46
36798;BME280;22748;8.426;99.512;2023-05-23T10:53:09;100561.09;;;33.03;60.20
36798;BME280;22748;8.426;99.512;2023-05-23T10:55:56;100578.06;;;32.98;60.05
36798;BME280;22748;8.426;99.512;2023-05-23T10:58:32;100573.94;;;32.84;60.80
36798;BME280;22748;8.426;99.512;2023-05-23T11:01:05;100587.47;;;32.48;62.11
36798;BME280;22748;8.426;99.512;2023-05-23T11:03:48;100589.50;;;32.65;61.88
36798;BME280;22748;8.426;99.512;2023-05-23T11:06:29;100567.28;;;32.63;62.03
36798;BME280;22748;8.426;99.512;2023-05-23T11:09:05;100564.94;;;32.54;62.43
36798;BME280;22748;8.426;99.512;2023-05-23T11:11:55;100572.69;;;32.63;62.08
36798;BME280;22748;8.426;99.512;2023-05-23T11:15:01;100572.34;;;32.71;62.34
36798;BME280;22748;8.426;99.512;2023-05-23T11:17:33;100570.44;;;32.71;62.90
36798;BME280;22748;8.426;99.512;2023-05-23T11:20:05;100561.03;;;32.74;62.46
36798;BME280;22748;8.426;99.512;2023-05-23T11:22:39;100564.78;;;32.73;62.46
36798;BME280;22748;8.426;99.512;2023-05-23T11:25:09;100561.38;;;32.66;63.37
36798;BME280;22748;8.426;99.512;2023-05-23T11:27:46;100557.66;;;32.67;63.40
36798;BME280;22748;8.426;99.512;2023-05-23T11:30:19;100563.16;;;32.72;63.47
36798;BME280;22748;8.426;99.512;2023-05-23T11:32:49;100564.47;;;32.69;63.64
36798;BME280;22748;8.426;99.512;2023-05-23T11:35:20;100566.94;;;32.71;63.42
36798;BME280;22748;8.426;99.512;2023-05-23T11:38:02;100565.41;;;32.63;64.04
36798;BME280;22748;8.426;99.512;2023-05-23T11:40:34;100569.25;;;32.55;64.11
36798;BME280;22748;8.426;99.512;2023-05-23T11:43:06;100566.56;;;32.55;64.45
36798;BME280;22748;8.426;99.512;2023-05-23T11:45:39;100569.25;;;32.55;64.57
36798;BME280;22748;8.426;99.512;2023-05-23T11:48:10;100570.78;;;32.51;64.65
36798;BME280;22748;8.426;99.512;2023-05-23T11:50:57;100558.72;;;32.54;64.43
36798;BME280;22748;8.426;99.512;2023-05-23T11:53:28;100566.56;;;32.55;64.52
36798;BME280;22748;8.426;99.512;2023-05-23T11:56:01;100563.31;;;32.53;64.83
36798;BME280;22748;8.426;99.512;2023-05-23T11:58:36;100563.31;;;32.53;64.75
36798;BME280;22748;8.426;99.512;2023-05-23T12:01:08;100578.06;;;32.51;65.15
36798;BME280;22748;8.426;99.512;2023-05-23T12:03:45;100573.50;;;32.51;64.99
36798;BME280;22748;8.426;99.512;2023-05-23T12:06:18;100582.56;;;32.57;65.23
36798;BME280;22748;8.426;99.512;2023-05-23T12:08:48;100581.25;;;32.59;65.26
36798;BME280;22748;8.426;99.512;2023-05-23T12:11:18;100590.53;;;32.64;64.95
36798;BME280;22748;8.426;99.512;2023-05-23T12:13:52;100590.88;;;32.55;65.04
36798;BME280;22748;8.426;99.512;2023-05-23T12:16:22;100600.31;;;32.53;65.01
36798;BME280;22748;8.426;99.512;2023-05-23T12:19:01;100602.50;;;32.44;65.45
36798;BME280;22748;8.426;99.512;2023-05-23T12:21:41;100602.97;;;32.41;65.22
36798;BME280;22748;8.426;99.512;2023-05-23T12:24:15;100601.56;;;32.38;65.24
36798;BME280;22748;8.426;99.512;2023-05-23T12:26:52;100600.13;;;32.24;65.50
36798;BME280;22748;8.426;99.512;2023-05-23T12:29:30;100594.28;;;32.27;65.58
36798;BME280;22748;8.426;99.512;2023-05-23T12:32:07;100603.19;;;32.28;65.30
36798;BME280;22748;8.426;99.512;2023-05-23T12:34:41;100606.00;;;32.33;65.26
36798;BME280;22748;8.426;99.512;2023-05-23T12:37:17;100606.72;;;32.28;65.53
36798;BME280;22748;8.426;99.512;2023-05-23T12:39:53;100611.53;;;32.26;65.36
36798;BME280;22748;8.426;99.512;2023-05-23T12:42:24;100612.47;;;32.20;65.75
36798;BME280;22748;8.426;99.512;2023-05-23T12:44:56;100612.34;;;32.27;65.37
36798;BME280;22748;8.426;99.512;2023-05-23T12:47:33;100614.34;;;32.31;65.29
36798;BME280;22748;8.426;99.512;2023-05-23T12:50:10;100613.03;;;32.10;65.82
36798;BME280;22748;8.426;99.512;2023-05-23T12:52:41;100624.97;;;32.03;65.72
36798;BME280;22748;8.426;99.512;2023-05-23T12:55:12;100615.75;;;32.10;65.31
36798;BME280;22748;8.426;99.512;2023-05-23T12:57:43;100621.03;;;32.17;65.31
36798;BME280;22748;8.426;99.512;2023-05-23T13:00:17;100627.72;;;32.14;64.94
36798;BME280;22748;8.426;99.512;2023-05-23T13:02:52;100637.47;;;32.15;64.70
36798;BME280;22748;8.426;99.512;2023-05-23T13:05:22;100641.94;;;32.22;64.92
36798;BME280;22748;8.426;99.512;2023-05-23T13:07:54;100638.78;;;32.25;64.75
36798;BME280;22748;8.426;99.512;2023-05-23T13:10:26;100641.25;;;32.26;64.49
36798;BME280;22748;8.426;99.512;2023-05-23T13:13:01;100644.19;;;32.25;64.73
36798;BME280;22748;8.426;99.512;2023-05-23T13:15:33;100644.78;;;32.27;64.30
36798;BME280;22748;8.426;99.512;2023-05-23T13:18:05;100647.72;;;32.25;64.83
36798;BME280;22748;8.426;99.512;2023-05-23T13:20:35;100657.34;;;32.21;64.59
36798;BME280;22748;8.426;99.512;2023-05-23T13:23:07;100654.06;;;32.19;64.17
36798;BME280;22748;8.426;99.512;2023-05-23T13:25:40;100668.91;;;31.98;64.97
36798;BME280;22748;8.426;99.512;2023-05-23T13:28:10;100660.78;;;31.98;64.97